Time;durP1;ratioP1;P1;durP2;ratioP2;P2;SDS_P1;SDS_P2;PMS_P1;PMS_P2;Temp;Humidity;BMP_temperature;BMP_pressure;BME280_temperature;BME280_humidity;BME280_pressure;Samples;Min_cycle;Max_cycle;Signal;HPM_P1;HPM_P2
2023/10/12 00:01:59;;;;;;;4.55;2.35;;;18.40;92.50;;;;;;4936923;29;20024;-85
2023/10/12 00:04:35;;;;;;;5.43;2.60;;;18.40;92.50;;;;;;4936713;29;20029;-85
2023/10/12 00:07:09;;;;;;;5.38;2.30;;;18.50;92.50;;;;;;4937126;29;20470;-85
2023/10/12 00:09:34;;;;;;;4.57;2.28;;;18.50;92.40;;;;;;4957406;29;20059;-85
2023/10/12 00:12:07;;;;;;;5.05;2.30;;;18.40;92.40;;;;;;4940193;29;20367;-84
2023/10/12 00:14:33;;;;;;;4.63;2.60;;;18.50;92.40;;;;;;4940233;29;20078;-85
2023/10/12 00:16:59;;;;;;;5.10;2.65;;;18.50;92.50;;;;;;4957269;29;20031;-86
2023/10/12 00:19:25;;;;;;;4.80;2.42;;;18.40;92.40;;;;;;4939917;29;20188;-85
2023/10/12 00:22:00;;;;;;;4.53;2.30;;;18.40;92.40;;;;;;4940001;29;20563;-85
2023/10/12 00:24:26;;;;;;;4.50;2.42;;;18.40;92.40;;;;;;4939709;29;20020;-86
2023/10/12 00:26:53;;;;;;;6.68;2.70;;;18.40;92.40;;;;;;4939921;29;20512;-85
2023/10/12 00:29:19;;;;;;;4.25;2.20;;;18.40;92.40;;;;;;4939825;29;20492;-85
2023/10/12 00:31:47;;;;;;;4.30;2.05;;;18.40;92.50;;;;;;4939692;29;20119;-85
2023/10/12 00:34:14;;;;;;;5.15;2.50;;;18.40;92.50;;;;;;4939533;29;20425;-85
2023/10/12 00:36:41;;;;;;;4.78;2.20;;;18.40;92.50;;;;;;4939709;29;20023;-85
2023/10/12 00:39:10;;;;;;;5.28;2.42;;;18.40;92.50;;;;;;4939043;29;20023;-85
2023/10/12 00:41:43;;;;;;;4.63;2.33;;;18.40;92.50;;;;;;4939655;29;20557;-86
2023/10/12 00:44:10;;;;;;;4.13;2.00;;;18.40;92.50;;;;;;4939352;29;20409;-85
2023/10/12 00:51:52;;;;;;;4.65;2.15;;;18.40;92.60;;;;;;4956871;29;20027;-85
2023/10/12 00:54:26;;;;;;;4.13;2.08;;;18.40;92.60;;;;;;4939324;29;20086;-85
2023/10/12 00:56:55;;;;;;;4.63;2.33;;;18.40;92.60;;;;;;4939427;29;20031;-85
2023/10/12 00:59:22;;;;;;;6.00;2.55;;;18.40;92.60;;;;;;4939095;29;20030;-85
2023/10/12 01:01:50;;;;;;;4.35;2.33;;;18.40;92.60;;;;;;4956309;29;20035;-85
2023/10/12 01:04:16;;;;;;;3.83;2.10;;;18.40;92.50;;;;;;4938862;29;20030;-85
2023/10/12 01:06:44;;;;;;;4.78;2.30;;;18.40;92.50;;;;;;4939172;29;20027;-86
2023/10/12 01:09:19;;;;;;;4.60;2.30;;;18.40;92.50;;;;;;4938884;29;20038;-85
2023/10/12 01:11:53;;;;;;;4.15;2.20;;;18.50;92.50;;;;;;4938985;29;20055;-85
2023/10/12 01:14:18;;;;;;;4.80;2.42;;;18.40;92.40;;;;;;4956020;29;20034;-85
2023/10/12 01:19:09;;;;;;;4.78;2.30;;;18.40;92.50;;;;;;4955164;28;20481;-85
2023/10/12 01:21:36;;;;;;;5.28;2.28;;;18.40;92.40;;;;;;4938812;29;20035;-85
2023/10/12 01:24:11;;;;;;;4.65;2.22;;;18.40;92.50;;;;;;4938494;29;20024;-85
2023/10/12 01:26:43;;;;;;;5.00;2.53;;;18.40;92.50;;;;;;4939160;29;20465;-85
2023/10/12 01:29:19;;;;;;;4.07;2.25;;;18.40;92.50;;;;;;4938686;29;20184;-85
2023/10/12 01:31:51;;;;;;;4.07;2.10;;;18.40;92.50;;;;;;4938758;29;20023;-85
2023/10/12 01:34:17;;;;;;;6.25;2.47;;;18.40;92.60;;;;;;4938447;29;20031;-85
2023/10/12 01:36:43;;;;;;;5.50;2.58;;;18.40;92.60;;;;;;4955716;29;20027;-85
2023/10/12 01:39:11;;;;;;;5.47;2.40;;;18.40;92.60;;;;;;4938151;29;20027;-86
2023/10/12 01:41:42;;;;;;;4.60;2.33;;;18.40;92.60;;;;;;4938471;29;20098;-85
2023/10/12 01:44:10;;;;;;;4.70;2.33;;;18.30;92.60;;;;;;4955255;29;20034;-86
2023/10/12 01:46:39;;;;;;;5.32;2.50;;;18.40;92.70;;;;;;4938383;29;20118;-85
2023/10/12 01:49:06;;;;;;;5.15;2.40;;;18.40;92.70;;;;;;4938182;29;20027;-85
2023/10/12 01:51:33;;;;;;;5.10;2.28;;;18.40;92.70;;;;;;4938340;29;20028;-85
2023/10/12 01:53:59;;;;;;;5.35;2.60;;;18.30;92.70;;;;;;4938001;29;20038;-85
2023/10/12 01:56:29;;;;;;;3.92;2.30;;;18.40;92.70;;;;;;4938244;29;20031;-85
2023/10/12 01:58:54;;;;;;;5.13;2.50;;;18.40;92.70;;;;;;4938014;29;20034;-85
2023/10/12 02:01:21;;;;;;;4.70;2.35;;;18.40;92.60;;;;;;4938151;29;20023;-85
2023/10/12 02:03:53;;;;;;;4.53;2.42;;;18.40;92.60;;;;;;4938022;29;20027;-85
2023/10/12 02:06:22;;;;;;;3.92;2.28;;;18.40;92.50;;;;;;4938093;29;20057;-86
2023/10/12 02:08:52;;;;;;;4.05;2.10;;;18.40;92.50;;;;;;4955094;29;20029;-86
2023/10/12 02:13:47;;;;;;;4.18;2.20;;;18.40;92.50;;;;;;4955174;29;20058;-85
2023/10/12 02:16:22;;;;;;;3.88;2.15;;;18.40;92.50;;;;;;4937847;29;20034;-85
2023/10/12 02:18:48;;;;;;;4.95;2.50;;;18.40;92.50;;;;;;4937657;29;20429;-86
2023/10/12 02:21:19;;;;;;;3.80;2.17;;;18.40;92.50;;;;;;4937733;29;20015;-85
2023/10/12 02:24:11;;;;;;;4.78;2.42;;;18.40;92.50;;;;;;4937575;29;20035;-86
2023/10/12 02:26:39;;;;;;;5.05;2.53;;;18.40;92.50;;;;;;4937782;29;20019;-85
2023/10/12 02:31:38;;;;;;;5.20;2.57;;;18.40;92.60;;;;;;4954613;28;20031;-85
2023/10/12 02:34:05;;;;;;;5.60;2.65;;;18.30;92.80;;;;;;4954590;29;20561;-85
2023/10/12 02:36:31;;;;;;;5.20;2.30;;;18.40;92.70;;;;;;4937889;29;20027;-86
2023/10/12 02:39:01;;;;;;;5.20;2.25;;;18.40;92.70;;;;;;4937129;29;20074;-86
2023/10/12 02:41:26;;;;;;;4.57;2.40;;;18.40;92.70;;;;;;4937478;29;20431;-85
2023/10/12 02:44:11;;;;;;;5.18;2.40;;;18.40;92.70;;;;;;4937209;29;20015;-85
2023/10/12 02:46:42;;;;;;;5.07;2.42;;;18.30;92.70;;;;;;4937496;29;20027;-85
2023/10/12 02:49:08;;;;;;;5.07;2.20;;;18.40;92.70;;;;;;4937654;29;20038;-85
2023/10/12 02:51:37;;;;;;;3.97;2.30;;;18.40;92.70;;;;;;4937375;29;20031;-85
2023/10/12 02:54:04;;;;;;;4.55;2.10;;;18.40;92.80;;;;;;4937027;29;20050;-85
2023/10/12 02:56:31;;;;;;;4.43;2.30;;;18.40;92.70;;;;;;4964346;28;20037;-85
2023/10/12 02:59:03;;;;;;;4.10;2.20;;;18.30;92.70;;;;;;4975620;28;20455;-85
2023/10/12 03:01:29;;;;;;;3.78;2.15;;;18.40;92.70;;;;;;4993192;28;20019;-85
2023/10/12 03:03:56;;;;;;;4.57;2.33;;;18.40;92.60;;;;;;4975365;28;20584;-85
2023/10/12 03:06:23;;;;;;;4.45;2.17;;;18.40;92.60;;;;;;4991839;28;20026;-85
2023/10/12 03:11:27;;;;;;;4.53;2.25;;;18.40;92.50;;;;;;4993461;28;20060;-85
2023/10/12 03:16:41;;;;;;;4.75;2.45;;;18.40;92.50;;;;;;4993316;28;20037;-85
2023/10/12 03:21:52;;;;;;;4.45;2.30;;;18.40;92.50;;;;;;4993349;28;20029;-85
2023/10/12 03:24:23;;;;;;;4.55;2.55;;;18.40;92.60;;;;;;4991463;28;20081;-85
2023/10/12 03:27:10;;;;;;;;;;;18.40;92.60;;;;;;4993647;28;20019;-85
2023/10/12 03:29:43;;;;;;;3.83;2.00;;;18.40;92.60;;;;;;4992837;28;19906;-86
2023/10/12 03:32:11;;;;;;;4.60;2.45;;;18.30;92.60;;;;;;4975350;28;20117;-84
2023/10/12 03:34:53;;;;;;;3.85;2.25;;;18.30;92.70;;;;;;4991549;28;20134;-85
2023/10/12 03:40:50;;;;;;;4.43;2.38;;;18.30;92.70;;;;;;4992551;28;20034;-85
2023/10/12 03:43:19;;;;;;;4.20;2.17;;;18.30;92.70;;;;;;4994611;28;20025;-85
2023/10/12 03:46:28;;;;;;;4.78;2.50;;;18.30;92.70;;;;;;4979171;28;20030;-85
2023/10/12 03:49:02;;;;;;;5.18;2.65;;;18.30;92.70;;;;;;4992495;28;20106;-85
2023/10/12 03:51:38;;;;;;;4.88;2.60;;;18.30;92.80;;;;;;4978861;28;20100;-86
2023/10/12 03:54:11;;;;;;;4.28;2.25;;;18.30;92.70;;;;;;4996185;28;20137;-86
2023/10/12 03:56:39;;;;;;;3.20;2.00;;;18.30;92.80;;;;;;4995168;28;20488;-85
2023/10/12 03:59:06;;;;;;;4.55;2.35;;;18.30;92.70;;;;;;4978745;28;20487;-85
2023/10/12 04:01:36;;;;;;;4.18;2.13;;;18.30;92.70;;;;;;4978887;28;20096;-85
2023/10/12 04:04:21;;;;;;;4.07;2.25;;;18.30;92.60;;;;;;4995077;28;20113;-85
2023/10/12 04:06:56;;;;;;;3.65;2.00;;;18.40;92.60;;;;;;4978705;28;20126;-85
2023/10/12 04:09:31;;;;;;;4.63;2.33;;;18.40;92.60;;;;;;4978722;28;20030;-84
2023/10/12 04:15:05;;;;;;;5.80;2.40;;;18.40;92.50;;;;;;4952516;28;20169;-85
2023/10/12 04:22:55;;;;;;;4.93;2.40;;;18.40;92.50;;;;;;4976395;28;20026;-84
2023/10/12 04:30:29;;;;;;;4.85;2.40;;;18.30;92.60;;;;;;4976586;28;20485;-85
2023/10/12 04:33:11;;;;;;;4.55;2.38;;;18.30;92.90;;;;;;4975978;28;20062;-85
2023/10/12 04:38:23;;;;;;;3.75;2.28;;;18.30;92.70;;;;;;4976094;28;20027;-84
2023/10/12 04:47:44;;;;;;;4.40;2.40;;;18.30;92.80;;;;;;4948349;28;20046;-86
2023/10/12 04:50:26;;;;;;;5.10;2.30;;;18.30;92.80;;;;;;4953091;28;20146;-85
2023/10/12 04:53:08;;;;;;;4.72;2.33;;;18.30;92.80;;;;;;4956552;28;20066;-85
2023/10/12 04:55:47;;;;;;;3.92;2.20;;;18.30;92.80;;;;;;4948355;29;20027;-86
2023/10/12 04:58:32;;;;;;;5.20;2.75;;;18.40;92.80;;;;;;4950661;28;20033;-85
2023/10/12 05:10:14;;;;;;;4.90;2.63;;;18.50;92.70;;;;;;4946090;28;20131;-87
2023/10/12 05:12:45;;;;;;;5.28;2.50;;;18.40;92.60;;;;;;4936221;28;20042;-83
2023/10/12 05:15:22;;;;;;;4.63;2.35;;;18.40;92.60;;;;;;4952156;29;20561;-85
2023/10/12 05:21:17;;;;;;;4.15;2.30;;;18.30;92.50;;;;;;4972440;28;20464;-84
2023/10/12 05:28:15;;;;;;;4.43;2.50;;;18.30;92.60;;;;;;4889618;29;20039;-85
2023/10/12 05:33:43;;;;;;;4.53;2.30;;;18.30;92.70;;;;;;4949637;28;20078;-85
2023/10/12 05:36:13;;;;;;;3.83;2.08;;;18.40;92.70;;;;;;4952258;28;20126;-85
2023/10/12 05:38:40;;;;;;;3.97;2.30;;;18.40;92.70;;;;;;4943904;28;20034;-82
2023/10/12 05:41:57;;;;;;;3.70;2.10;;;18.50;92.80;;;;;;4945965;29;20029;-85
2023/10/12 05:44:26;;;;;;;4.03;1.92;;;18.40;92.80;;;;;;4935112;29;20035;-86
2023/10/12 06:07:17;;;;;;;4.93;2.20;;;18.40;92.80;;;;;;5128502;23;20057;-86
2023/10/12 06:09:43;;;;;;;5.38;2.38;;;18.40;92.70;;;;;;5012109;28;20507;-86
2023/10/12 06:12:12;;;;;;;3.15;1.80;;;18.40;92.60;;;;;;5011928;28;20030;-85
2023/10/12 06:14:38;;;;;;;5.28;2.25;;;18.40;92.60;;;;;;5012111;28;20396;-85
2023/10/12 06:17:07;;;;;;;3.92;2.17;;;18.40;92.60;;;;;;5015748;28;20029;-86
2023/10/12 06:19:36;;;;;;;5.15;2.20;;;18.40;92.60;;;;;;5015330;28;20112;-86
2023/10/12 06:22:19;;;;;;;5.13;2.30;;;18.30;92.60;;;;;;5015304;28;20033;-84
2023/10/12 06:24:48;;;;;;;3.90;2.25;;;18.40;92.60;;;;;;5032971;28;20021;-86
2023/10/12 06:29:47;;;;;;;5.43;2.20;;;18.30;92.70;;;;;;5033280;28;20056;-85
2023/10/12 06:32:59;;;;;;;4.75;2.17;;;18.30;92.70;;;;;;5014976;28;20153;-86
2023/10/12 06:45:52;;;;;;;4.35;2.10;;;18.30;92.80;;;;;;5033065;28;20052;-85
2023/10/12 06:51:03;;;;;;;5.07;2.30;;;18.30;92.80;;;;;;5032925;28;20026;-86
2023/10/12 06:53:34;;;;;;;3.67;2.22;;;18.30;92.80;;;;;;5014857;28;20025;-86
2023/10/12 06:56:13;;;;;;;4.38;2.20;;;18.30;92.80;;;;;;5014920;28;20033;-86
2023/10/12 06:58:38;;;;;;;4.22;2.30;;;18.30;92.90;;;;;;5014897;28;20060;-86
2023/10/12 07:01:19;;;;;;;4.28;2.45;;;18.20;92.80;;;;;;5014507;28;20064;-85
2023/10/12 07:03:48;;;;;;;4.38;2.33;;;18.30;92.80;;;;;;5014871;28;20452;-85
2023/10/12 07:06:15;;;;;;;4.88;2.30;;;18.30;92.80;;;;;;5014785;28;20057;-85
2023/10/12 07:08:42;;;;;;;3.95;2.05;;;18.30;92.70;;;;;;5014720;28;20044;-86
2023/10/12 07:11:11;;;;;;;3.90;2.10;;;18.30;92.70;;;;;;5032347;28;20087;-85
2023/10/12 07:13:39;;;;;;;4.47;2.45;;;18.40;92.70;;;;;;5014601;28;20029;-86
2023/10/12 07:16:08;;;;;;;3.88;2.25;;;18.40;92.70;;;;;;5014715;28;20060;-85
2023/10/12 07:18:35;;;;;;;4.00;1.98;;;18.40;92.60;;;;;;5017673;28;20035;-86
2023/10/12 07:21:00;;;;;;;5.00;2.40;;;18.40;92.60;;;;;;5018617;28;20028;-85
2023/10/12 07:23:44;;;;;;;3.22;1.90;;;18.40;92.60;;;;;;5018689;28;20018;-86
2023/10/12 07:26:12;;;;;;;3.60;2.10;;;18.40;92.70;;;;;;5018606;28;20024;-85
2023/10/12 07:28:41;;;;;;;4.25;2.20;;;18.30;92.70;;;;;;5018693;28;20028;-86
2023/10/12 07:33:51;;;;;;;3.95;2.25;;;18.30;92.70;;;;;;5036399;28;20021;-86
2023/10/12 07:36:17;;;;;;;4.25;2.20;;;18.30;92.70;;;;;;5036130;28;20079;-85
2023/10/12 07:38:46;;;;;;;4.88;2.15;;;18.30;92.70;;;;;;5036125;28;20022;-86
2023/10/12 07:41:12;;;;;;;4.97;2.40;;;18.30;92.80;;;;;;5018383;28;20021;-85
2023/10/12 07:43:38;;;;;;;3.70;2.05;;;18.30;92.80;;;;;;5018090;28;20037;-86
2023/10/12 07:46:14;;;;;;;3.97;2.20;;;18.30;92.80;;;;;;5035924;28;20095;-86
2023/10/12 07:48:42;;;;;;;3.97;2.00;;;18.30;92.80;;;;;;5018420;28;20385;-85
2023/10/12 07:51:15;;;;;;;3.65;2.13;;;18.30;92.80;;;;;;5018085;28;20030;-86
2023/10/12 07:53:45;;;;;;;5.20;2.45;;;18.30;92.80;;;;;;5017904;28;20030;-86
2023/10/12 07:56:16;;;;;;;4.25;1.95;;;18.30;92.80;;;;;;5018042;28;20021;-86
2023/10/12 07:58:50;;;;;;;4.37;2.23;;;18.30;92.90;;;;;;5018142;28;20029;-85
2023/10/12 08:03:58;;;;;;;3.67;2.10;;;18.30;92.90;;;;;;5035676;28;20029;-86
2023/10/12 08:06:41;;;;;;;4.13;2.22;;;18.30;92.80;;;;;;5017746;28;20036;-85
2023/10/12 08:09:39;;;;;;;4.20;2.25;;;18.30;92.80;;;;;;5017878;28;20022;-85
2023/10/12 08:12:24;;;;;;;3.90;2.05;;;18.30;92.70;;;;;;5017814;28;20017;-85
2023/10/12 08:14:53;;;;;;;3.78;2.20;;;18.30;92.70;;;;;;5017643;28;20407;-85
2023/10/12 08:17:25;;;;;;;4.18;2.15;;;18.40;92.70;;;;;;5017907;28;20037;-86
2023/10/12 08:20:44;;;;;;;3.95;2.10;;;18.30;92.70;;;;;;5017638;28;20164;-86
2023/10/12 08:22:43;;;;;;;3.25;1.90;;;18.30;92.70;;;;;;5034807;28;20534;-86
2023/10/12 08:25:09;;;;;;;3.65;2.00;;;18.40;92.70;;;;;;5017578;28;20025;-85
2023/10/12 08:27:52;;;;;;;3.00;1.85;;;18.30;92.70;;;;;;5017249;28;20024;-85
2023/10/12 08:30:24;;;;;;;4.18;2.25;;;18.30;92.70;;;;;;5017439;28;20033;-85
2023/10/12 08:33:09;;;;;;;3.65;1.80;;;18.30;92.70;;;;;;5017071;28;20506;-85
2023/10/12 08:35:55;;;;;;;4.18;2.20;;;18.30;92.70;;;;;;5017381;28;20385;-86
2023/10/12 08:38:33;;;;;;;3.90;2.15;;;18.30;92.80;;;;;;5034900;28;20036;-85
2023/10/12 08:43:48;;;;;;;3.03;1.85;;;18.30;92.80;;;;;;5034989;28;20079;-85
2023/10/12 08:46:48;;;;;;;3.17;1.90;;;18.30;92.80;;;;;;5017269;28;20599;-85
2023/10/12 08:54:44;;;;;;;3.40;1.70;;;18.30;92.80;;;;;;5034956;28;20084;-85
2023/10/12 08:57:37;;;;;;;3.15;1.83;;;18.30;92.80;;;;;;5016922;28;20059;-85
2023/10/12 09:03:00;;;;;;;3.88;2.10;;;18.30;92.90;;;;;;5034673;28;20079;-85
2023/10/12 09:05:28;;;;;;;3.35;2.00;;;18.30;92.90;;;;;;5034766;28;20018;-85
2023/10/12 09:13:35;;;;;;;3.38;1.83;;;18.30;92.70;;;;;;5034158;28;20059;-85
2023/10/12 09:16:15;;;;;;;3.75;2.00;;;18.40;92.70;;;;;;5016589;28;20164;-85
2023/10/12 09:21:19;;;;;;;3.10;1.80;;;18.40;92.70;;;;;;5034417;28;20029;-85
2023/10/12 09:26:15;;;;;;;3.60;2.00;;;18.30;92.60;;;;;;5034209;28;20022;-85
2023/10/12 09:31:14;;;;;;;3.53;1.92;;;18.30;92.70;;;;;;5034581;28;20025;-85
2023/10/12 09:34:31;;;;;;;2.72;1.63;;;18.30;92.70;;;;;;5016008;28;20025;-85
2023/10/12 09:36:49;;;;;;;3.08;1.75;;;18.30;92.80;;;;;;5033612;28;20026;-85
2023/10/12 09:39:24;;;;;;;3.20;1.90;;;18.30;92.80;;;;;;5015972;28;20026;-85
2023/10/12 09:41:59;;;;;;;3.40;1.70;;;18.30;92.80;;;;;;5015791;28;20395;-86
2023/10/12 09:44:26;;;;;;;4.25;2.10;;;18.30;92.80;;;;;;5015792;28;20033;-86
2023/10/12 09:46:56;;;;;;;2.90;1.67;;;18.30;92.80;;;;;;5033804;28;20476;-86
2023/10/12 09:49:27;;;;;;;3.42;1.77;;;18.30;92.80;;;;;;5016038;28;20426;-85
2023/10/12 09:52:04;;;;;;;3.33;1.73;;;18.30;92.80;;;;;;5015827;28;20606;-86
2023/10/12 09:54:48;;;;;;;3.15;1.60;;;18.30;92.80;;;;;;5015743;28;20497;-85
2023/10/12 09:57:27;;;;;;;2.47;1.58;;;18.30;92.80;;;;;;5015880;28;20025;-85
2023/10/12 09:59:59;;;;;;;3.20;1.80;;;18.30;92.80;;;;;;5033281;28;20030;-86
2023/10/12 10:02:29;;;;;;;3.45;1.80;;;18.30;92.80;;;;;;5015628;28;20056;-86
2023/10/12 10:05:11;;;;;;;2.60;1.58;;;18.30;92.90;;;;;;5015570;28;20079;-86
2023/10/12 10:08:02;;;;;;;2.63;1.70;;;18.30;92.80;;;;;;5014927;28;20071;-85
2023/10/12 10:10:30;;;;;;;;;;;18.30;92.70;;;;;;5033138;28;20029;-86
2023/10/12 10:12:59;;;;;;;2.83;1.60;;;18.30;92.70;;;;;;5032198;28;19912;-85
2023/10/12 10:15:37;;;;;;;3.13;1.80;;;18.30;92.70;;;;;;5014688;28;20029;-85
2023/10/12 10:18:14;;;;;;;3.40;1.70;;;18.40;92.60;;;;;;5014721;28;20053;-85
2023/10/12 10:20:46;;;;;;;2.80;1.65;;;18.40;92.60;;;;;;5014697;28;20037;-86
2023/10/12 10:23:14;;;;;;;3.17;1.70;;;18.30;92.60;;;;;;5014385;28;20407;-86
2023/10/12 10:25:46;;;;;;;2.95;1.63;;;18.30;92.60;;;;;;5014362;28;20025;-85
2023/10/12 10:28:32;;;;;;;2.58;1.50;;;18.40;92.60;;;;;;5014463;28;20482;-86
2023/10/12 10:31:01;;;;;;;2.95;1.50;;;18.30;92.60;;;;;;5014560;28;20504;-84
2023/10/12 10:33:28;;;;;;;2.63;1.70;;;18.30;92.60;;;;;;5014208;28;20127;-86
2023/10/12 10:36:13;;;;;;;2.38;1.50;;;18.30;92.70;;;;;;5014414;28;20063;-86
2023/10/12 10:38:53;;;;;;;2.40;1.50;;;18.30;92.70;;;;;;5014468;28;20036;-86
2023/10/12 10:44:15;;;;;;;3.00;1.80;;;18.30;92.70;;;;;;5032097;28;20080;-86
2023/10/12 10:46:45;;;;;;;3.15;1.65;;;18.30;93.00;;;;;;5014267;28;20033;-86
2023/10/12 10:49:15;;;;;;;2.97;1.60;;;18.30;92.70;;;;;;5014153;28;20113;-86
2023/10/12 10:51:46;;;;;;;3.28;1.65;;;18.30;92.70;;;;;;5031716;28;20017;-86
2023/10/12 10:54:18;;;;;;;2.70;1.50;;;18.30;92.80;;;;;;5014099;28;20495;-86
2023/10/12 10:56:48;;;;;;;3.05;1.80;;;18.30;92.80;;;;;;5014446;28;20554;-85
2023/10/12 10:59:17;;;;;;;3.00;1.70;;;18.30;92.80;;;;;;5013819;28;20033;-84
2023/10/12 11:01:48;;;;;;;2.78;1.60;;;18.30;92.80;;;;;;5014008;28;20017;-86
2023/10/12 11:04:18;;;;;;;3.08;1.65;;;18.30;92.80;;;;;;5013809;28;20025;-86
2023/10/12 11:06:53;;;;;;;2.63;1.40;;;18.30;92.90;;;;;;4977974;28;1046124;-85
2023/10/12 11:09:22;;;;;;;2.55;1.50;;;18.30;92.80;;;;;;5014832;28;20029;-86
2023/10/12 11:11:58;;;;;;;3.08;1.60;;;18.30;92.80;;;;;;5014813;28;20053;-85
2023/10/12 11:14:25;;;;;;;2.80;1.60;;;18.30;92.70;;;;;;5014588;28;20072;-85
2023/10/12 11:16:51;;;;;;;2.15;1.40;;;18.30;92.70;;;;;;5014643;28;20027;-86
2023/10/12 11:19:19;;;;;;;2.30;1.30;;;18.30;92.60;;;;;;5014623;28;20022;-86
2023/10/12 11:21:57;;;;;;;3.15;1.50;;;18.40;92.60;;;;;;5014731;28;20033;-85
2023/10/12 11:24:24;;;;;;;3.13;1.67;;;18.40;92.70;;;;;;5032245;28;20544;-86
2023/10/12 11:26:57;;;;;;;2.63;1.40;;;18.30;92.60;;;;;;5032284;28;20148;-86
2023/10/12 11:29:24;;;;;;;2.88;1.50;;;18.30;92.60;;;;;;5014644;28;20412;-86
2023/10/12 11:32:09;;;;;;;2.80;1.50;;;18.30;92.60;;;;;;5014420;28;20483;-86
2023/10/12 11:34:36;;;;;;;2.38;1.30;;;18.30;92.70;;;;;;5014659;28;20439;-86
2023/10/12 11:37:01;;;;;;;2.25;1.23;;;18.30;92.70;;;;;;5014521;28;20032;-86
2023/10/12 11:39:30;;;;;;;2.53;1.42;;;18.30;92.70;;;;;;5014399;28;20021;-86
2023/10/12 11:42:12;;;;;;;2.55;1.58;;;18.30;92.90;;;;;;5014314;28;20026;-86
2023/10/12 11:44:42;;;;;;;3.30;1.75;;;18.30;92.70;;;;;;5014442;28;20032;-86
2023/10/12 11:47:08;;;;;;;2.92;1.60;;;18.30;92.80;;;;;;5014877;28;20458;-86
2023/10/12 11:49:55;;;;;;;2.33;1.50;;;18.30;92.80;;;;;;5032048;28;20475;-86
2023/10/12 11:52:29;;;;;;;2.40;1.40;;;18.30;92.80;;;;;;5014180;28;20033;-86
2023/10/12 11:55:28;;;;;;;3.53;1.80;;;18.30;92.80;;;;;;5014327;28;20029;-86
2023/10/12 11:57:58;;;;;;;2.88;1.55;;;18.30;92.80;;;;;;5014343;28;20395;-86
2023/10/12 12:00:29;;;;;;;2.10;1.40;;;18.30;92.80;;;;;;5031849;28;20395;-86
2023/10/12 12:03:02;;;;;;;2.53;1.45;;;18.30;92.80;;;;;;5014327;28;20025;-85
2023/10/12 12:05:37;;;;;;;2.30;1.50;;;18.30;92.80;;;;;;5018113;28;20116;-86
2023/10/12 12:08:06;;;;;;;2.45;1.48;;;18.30;92.90;;;;;;5017715;28;20063;-86
2023/10/12 12:10:40;;;;;;;2.70;1.60;;;18.30;92.80;;;;;;5017842;28;20036;-86
2023/10/12 12:13:09;;;;;;;2.30;1.40;;;18.30;92.80;;;;;;5035277;28;20045;-86
2023/10/12 12:15:35;;;;;;;2.28;1.50;;;18.20;92.80;;;;;;5017659;28;20022;-86
2023/10/12 12:18:09;;;;;;;2.58;1.30;;;18.30;92.70;;;;;;5035338;28;20391;-86
2023/10/12 12:20:39;;;;;;;1.98;1.35;;;18.30;92.70;;;;;;5017493;28;20021;-85
2023/10/12 12:23:05;;;;;;;2.20;1.40;;;18.30;92.70;;;;;;5017398;28;20112;-86
2023/10/12 12:25:38;;;;;;;2.47;1.42;;;18.30;92.70;;;;;;5017620;28;20487;-86
2023/10/12 12:28:04;;;;;;;2.53;1.50;;;18.30;92.70;;;;;;5017549;28;20025;-86
2023/10/12 12:30:33;;;;;;;2.00;1.20;;;18.30;92.70;;;;;;5017436;28;20030;-86
2023/10/12 12:33:03;;;;;;;2.30;1.40;;;18.30;92.70;;;;;;5017389;28;20479;-86
2023/10/12 12:35:29;;;;;;;1.63;1.20;;;18.30;92.70;;;;;;5017325;28;20553;-86
2023/10/12 12:38:05;;;;;;;2.58;1.52;;;18.30;92.90;;;;;;5034974;28;20041;-86
2023/10/12 12:40:38;;;;;;;2.42;1.40;;;18.30;92.70;;;;;;5017221;28;20025;-86
2023/10/12 12:43:04;;;;;;;3.50;1.63;;;18.30;92.70;;;;;;5034656;28;20018;-85
2023/10/12 12:45:35;;;;;;;2.38;1.48;;;18.30;92.70;;;;;;5017092;28;20112;-86
2023/10/12 12:48:01;;;;;;;1.98;1.15;;;18.30;92.80;;;;;;5017123;28;20048;-86
2023/10/12 12:50:28;;;;;;;2.50;1.40;;;18.30;92.80;;;;;;5017276;28;20029;-86
2023/10/12 12:52:54;;;;;;;2.75;1.50;;;18.30;92.80;;;;;;5034490;28;20506;-86
2023/10/12 12:55:22;;;;;;;1.80;1.23;;;18.30;92.80;;;;;;5016993;28;20053;-86
2023/10/12 12:57:47;;;;;;;2.35;1.50;;;18.30;92.80;;;;;;5016998;28;20021;-86
2023/10/12 13:00:21;;;;;;;2.05;1.40;;;18.30;92.80;;;;;;5016409;28;20049;-86
2023/10/12 13:02:48;;;;;;;2.03;1.25;;;18.30;92.80;;;;;;5016687;28;20049;-86
2023/10/12 13:05:14;;;;;;;2.05;1.40;;;18.30;92.80;;;;;;5016797;28;20395;-86
2023/10/12 13:07:40;;;;;;;2.22;1.50;;;18.20;92.80;;;;;;5016721;28;20029;-86
2023/10/12 13:10:07;;;;;;;1.90;1.40;;;18.30;92.90;;;;;;5016813;28;20035;-85
2023/10/12 13:12:33;;;;;;;1.95;1.20;;;18.30;92.90;;;;;;5016432;28;20028;-86
2023/10/12 13:15:01;;;;;;;2.10;1.20;;;18.30;92.90;;;;;;5015422;28;20072;-86
2023/10/12 13:17:30;;;;;;;2.17;1.30;;;18.30;92.80;;;;;;5016762;28;20109;-86
2023/10/12 13:19:58;;;;;;;1.58;1.25;;;18.30;92.70;;;;;;5016608;28;20071;-86
2023/10/12 13:22:25;;;;;;;1.92;1.30;;;18.30;92.70;;;;;;5016266;28;20026;-86
2023/10/12 13:25:00;;;;;;;2.20;1.30;;;18.30;92.70;;;;;;5016400;28;20025;-86
2023/10/12 13:27:32;;;;;;;2.28;1.30;;;18.30;92.60;;;;;;5016445;28;20472;-86
2023/10/12 13:30:00;;;;;;;1.60;1.20;;;18.30;92.60;;;;;;5016405;28;20430;-86
2023/10/12 13:32:26;;;;;;;2.47;1.40;;;18.30;92.60;;;;;;5015983;28;20025;-85
2023/10/12 13:35:00;;;;;;;2.92;1.40;;;18.30;92.70;;;;;;5016270;28;20026;-86
2023/10/12 13:37:30;;;;;;;1.65;1.23;;;18.30;92.70;;;;;;5016233;28;20025;-85
2023/10/12 13:39:58;;;;;;;2.13;1.38;;;18.30;92.70;;;;;;5016131;28;20108;-85
2023/10/12 13:42:24;;;;;;;2.63;1.58;;;18.30;92.70;;;;;;5016040;28;20025;-86
2023/10/12 13:44:50;;;;;;;2.17;1.40;;;18.30;92.70;;;;;;5016030;28;20117;-85
2023/10/12 13:47:16;;;;;;;1.67;1.20;;;18.30;92.70;;;;;;5015994;28;20502;-86
2023/10/12 13:49:42;;;;;;;2.28;1.35;;;18.20;92.70;;;;;;5016039;28;20051;-86
2023/10/12 13:52:09;;;;;;;1.77;1.20;;;18.30;92.80;;;;;;5015808;28;20124;-86
2023/10/12 13:54:35;;;;;;;1.77;1.30;;;18.30;92.80;;;;;;5015727;28;20025;-86
2023/10/12 13:57:02;;;;;;;2.17;1.27;;;18.20;92.80;;;;;;5015799;28;20052;-85
2023/10/12 13:59:28;;;;;;;2.17;1.30;;;18.30;92.80;;;;;;5015483;28;20412;-85
2023/10/12 14:01:56;;;;;;;1.98;1.35;;;18.20;92.80;;;;;;5033332;28;20021;-86
2023/10/12 14:04:33;;;;;;;2.38;1.30;;;18.20;92.80;;;;;;5033366;28;20068;-85
2023/10/12 14:07:02;;;;;;;1.70;1.20;;;18.20;92.80;;;;;;5015554;28;20037;-86
2023/10/12 14:09:29;;;;;;;1.90;1.23;;;18.30;92.80;;;;;;5015603;28;20029;-86
2023/10/12 14:11:55;;;;;;;1.60;1.10;;;18.30;92.90;;;;;;5015582;28;20034;-86
2023/10/12 14:14:21;;;;;;;1.90;1.20;;;18.20;92.90;;;;;;5015347;28;20025;-85
2023/10/12 14:16:47;;;;;;;1.90;1.15;;;18.30;92.90;;;;;;5033239;28;20100;-86
2023/10/12 14:19:16;;;;;;;3.13;1.35;;;18.30;92.90;;;;;;5015312;28;20112;-86
2023/10/12 14:21:43;;;;;;;1.63;1.13;;;18.30;92.80;;;;;;5015476;28;20071;-86
2023/10/12 14:24:09;;;;;;;3.17;1.30;;;18.30;92.80;;;;;;5015178;28;20073;-86
2023/10/12 14:26:37;;;;;;;2.03;1.30;;;18.30;92.70;;;;;;5015040;28;20522;-86
2023/10/12 14:29:09;;;;;;;2.03;1.30;;;18.30;92.70;;;;;;5015369;28;20018;-86
2023/10/12 14:31:34;;;;;;;2.28;1.30;;;18.30;92.70;;;;;;5015337;28;20048;-86
2023/10/12 14:34:00;;;;;;;2.20;1.20;;;18.30;92.70;;;;;;5014996;28;20476;-86
2023/10/12 14:36:26;;;;;;;2.05;1.20;;;18.30;92.70;;;;;;5015119;28;20018;-86
2023/10/12 14:38:54;;;;;;;2.00;1.02;;;18.30;92.70;;;;;;5032853;28;20024;-86
2023/10/12 14:41:21;;;;;;;1.70;1.10;;;18.30;92.70;;;;;;5015051;28;20029;-86
2023/10/12 14:43:47;;;;;;;2.15;1.17;;;18.30;92.70;;;;;;5032592;28;20028;-86
2023/10/12 14:46:13;;;;;;;2.67;1.20;;;18.30;92.70;;;;;;5015034;28;20033;-86
2023/10/12 14:48:43;;;;;;;1.60;1.10;;;18.20;92.70;;;;;;5015044;28;20021;-86
2023/10/12 14:51:12;;;;;;;2.05;1.20;;;18.20;92.70;;;;;;5015081;28;20052;-86
2023/10/12 14:53:39;;;;;;;2.00;1.17;;;18.30;92.80;;;;;;5014899;28;20040;-85
2023/10/12 14:56:06;;;;;;;1.92;1.17;;;18.30;92.80;;;;;;5014993;28;20505;-86
2023/10/12 14:58:32;;;;;;;2.45;1.30;;;18.20;92.80;;;;;;5032587;28;20029;-86
2023/10/12 15:00:58;;;;;;;2.53;1.30;;;18.20;92.80;;;;;;5032063;28;20032;-86
2023/10/12 15:03:23;;;;;;;1.30;1.00;;;18.20;92.80;;;;;;5014561;28;20049;-86
2023/10/12 15:05:54;;;;;;;1.73;1.15;;;18.20;92.80;;;;;;5014711;28;20025;-86
2023/10/12 15:08:20;;;;;;;1.50;1.10;;;18.20;92.80;;;;;;5014375;28;20052;-85
2023/10/12 15:10:46;;;;;;;2.13;1.20;;;18.20;92.80;;;;;;5014787;28;20025;-86
2023/10/12 15:13:16;;;;;;;2.25;1.40;;;18.20;92.80;;;;;;5014507;28;20033;-86
2023/10/12 15:15:47;;;;;;;1.70;1.08;;;18.20;92.90;;;;;;5032380;28;20056;-86
2023/10/12 15:18:18;;;;;;;2.17;1.27;;;18.20;92.90;;;;;;5014918;28;20056;-86
2023/10/12 15:20:44;;;;;;;2.80;1.20;;;18.30;92.90;;;;;;5014730;28;20026;-86
2023/10/12 15:23:11;;;;;;;1.55;1.10;;;18.30;92.80;;;;;;5014327;28;20025;-86
2023/10/12 15:25:36;;;;;;;1.75;1.10;;;18.30;92.80;;;;;;5014550;28;20026;-86